sensor_id;sensor_type;location;lat;lon;timestamp;P1;durP1;ratioP1;P2;durP2;ratioP2
39502;SDS011;26970;49.900;10.774;2023-12-20T00:01:36;15.75;;;8.70;;
39502;SDS011;26970;49.900;10.774;2023-12-20T00:04:02;16.10;;;9.52;;
39502;SDS011;26970;49.900;10.774;2023-12-20T00:06:28;11.93;;;7.28;;
39502;SDS011;26970;49.900;10.774;2023-12-20T00:08:54;13.77;;;8.10;;
39502;SDS011;26970;49.900;10.774;2023-12-20T00:11:20;13.50;;;8.27;;
39502;SDS011;26970;49.900;10.774;2023-12-20T00:13:46;13.00;;;7.68;;
39502;SDS011;26970;49.900;10.774;2023-12-20T00:16:11;12.98;;;8.02;;
39502;SDS011;26970;49.900;10.774;2023-12-20T00:18:37;15.02;;;7.60;;
39502;SDS011;26970;49.900;10.774;2023-12-20T00:21:03;12.93;;;6.93;;
39502;SDS011;26970;49.900;10.774;2023-12-20T00:23:29;12.88;;;7.80;;
39502;SDS011;26970;49.900;10.774;2023-12-20T00:25:55;13.93;;;7.53;;
39502;SDS011;26970;49.900;10.774;2023-12-20T00:28:21;11.18;;;7.03;;
39502;SDS011;26970;49.900;10.774;2023-12-20T00:30:46;11.32;;;6.88;;
39502;SDS011;26970;49.900;10.774;2023-12-20T00:33:12;9.27;;;6.25;;
39502;SDS011;26970;49.900;10.774;2023-12-20T00:35:38;12.00;;;6.65;;
39502;SDS011;26970;49.900;10.774;2023-12-20T00:38:03;11.27;;;6.45;;
39502;SDS011;26970;49.900;10.774;2023-12-20T00:40:30;11.93;;;7.13;;
39502;SDS011;26970;49.900;10.774;2023-12-20T00:42:56;10.45;;;6.40;;
39502;SDS011;26970;49.900;10.774;2023-12-20T00:45:21;8.70;;;5.65;;
39502;SDS011;26970;49.900;10.774;2023-12-20T00:47:47;9.75;;;5.13;;
39502;SDS011;26970;49.900;10.774;2023-12-20T00:50:12;9.23;;;5.45;;
39502;SDS011;26970;49.900;10.774;2023-12-20T00:52:38;7.68;;;5.00;;
39502;SDS011;26970;49.900;10.774;2023-12-20T00:55:04;6.30;;;4.47;;
39502;SDS011;26970;49.900;10.774;2023-12-20T00:57:30;8.15;;;4.70;;
39502;SDS011;26970;49.900;10.774;2023-12-20T00:59:56;7.15;;;4.43;;
39502;SDS011;26970;49.900;10.774;2023-12-20T01:02:21;6.40;;;3.83;;
39502;SDS011;26970;49.900;10.774;2023-12-20T01:04:47;6.55;;;4.53;;
39502;SDS011;26970;49.900;10.774;2023-12-20T01:07:13;7.35;;;3.33;;
39502;SDS011;26970;49.900;10.774;2023-12-20T01:09:38;4.93;;;3.45;;
39502;SDS011;26970;49.900;10.774;2023-12-20T01:12:04;9.88;;;3.88;;
39502;SDS011;26970;49.900;10.774;2023-12-20T01:14:29;5.38;;;3.67;;
39502;SDS011;26970;49.900;10.774;2023-12-20T01:16:55;5.07;;;3.30;;
39502;SDS011;26970;49.900;10.774;2023-12-20T01:19:21;5.32;;;3.08;;
39502;SDS011;26970;49.900;10.774;2023-12-20T01:21:46;4.60;;;3.00;;
39502;SDS011;26970;49.900;10.774;2023-12-20T01:24:12;6.35;;;3.28;;
39502;SDS011;26970;49.900;10.774;2023-12-20T01:26:38;6.55;;;3.20;;
39502;SDS011;26970;49.900;10.774;2023-12-20T01:29:03;4.80;;;2.97;;
39502;SDS011;26970;49.900;10.774;2023-12-20T01:31:29;5.22;;;3.20;;
39502;SDS011;26970;49.900;10.774;2023-12-20T01:33:54;5.18;;;2.80;;
39502;SDS011;26970;49.900;10.774;2023-12-20T01:36:20;5.10;;;2.95;;
39502;SDS011;26970;49.900;10.774;2023-12-20T01:38:46;4.53;;;2.90;;
39502;SDS011;26970;49.900;10.774;2023-12-20T01:41:12;4.88;;;2.78;;
39502;SDS011;26970;49.900;10.774;2023-12-20T01:43:37;5.95;;;3.15;;
39502;SDS011;26970;49.900;10.774;2023-12-20T01:46:03;4.13;;;2.70;;
39502;SDS011;26970;49.900;10.774;2023-12-20T01:48:29;5.45;;;2.63;;
39502;SDS011;26970;49.900;10.774;2023-12-20T01:50:57;5.43;;;2.60;;
39502;SDS011;26970;49.900;10.774;2023-12-20T01:53:24;4.70;;;2.80;;
39502;SDS011;26970;49.900;10.774;2023-12-20T01:55:51;4.30;;;2.38;;
39502;SDS011;26970;49.900;10.774;2023-12-20T01:58:19;4.85;;;3.00;;
39502;SDS011;26970;49.900;10.774;2023-12-20T02:00:45;3.85;;;2.78;;
39502;SDS011;26970;49.900;10.774;2023-12-20T02:03:17;4.35;;;2.60;;
39502;SDS011;26970;49.900;10.774;2023-12-20T02:05:43;3.88;;;2.50;;
39502;SDS011;26970;49.900;10.774;2023-12-20T02:08:10;3.60;;;2.22;;
39502;SDS011;26970;49.900;10.774;2023-12-20T02:10:36;3.38;;;2.20;;
39502;SDS011;26970;49.900;10.774;2023-12-20T02:13:02;5.00;;;2.60;;
39502;SDS011;26970;49.900;10.774;2023-12-20T02:15:29;3.90;;;2.42;;
39502;SDS011;26970;49.900;10.774;2023-12-20T02:17:54;3.95;;;2.60;;
39502;SDS011;26970;49.900;10.774;2023-12-20T02:20:20;3.10;;;2.10;;
39502;SDS011;26970;49.900;10.774;2023-12-20T02:22:46;2.88;;;2.08;;
39502;SDS011;26970;49.900;10.774;2023-12-20T02:25:11;2.90;;;1.95;;
39502;SDS011;26970;49.900;10.774;2023-12-20T02:27:37;3.67;;;2.30;;
39502;SDS011;26970;49.900;10.774;2023-12-20T02:30:05;3.85;;;2.42;;
39502;SDS011;26970;49.900;10.774;2023-12-20T02:32:31;3.47;;;2.10;;
39502;SDS011;26970;49.900;10.774;2023-12-20T02:34:57;3.47;;;2.10;;
39502;SDS011;26970;49.900;10.774;2023-12-20T02:37:23;3.58;;;2.08;;
39502;SDS011;26970;49.900;10.774;2023-12-20T02:39:48;4.85;;;2.38;;
39502;SDS011;26970;49.900;10.774;2023-12-20T02:42:14;3.38;;;2.22;;
39502;SDS011;26970;49.900;10.774;2023-12-20T02:44:40;3.97;;;2.28;;
39502;SDS011;26970;49.900;10.774;2023-12-20T02:47:05;3.95;;;2.35;;
39502;SDS011;26970;49.900;10.774;2023-12-20T02:49:31;3.72;;;2.05;;
39502;SDS011;26970;49.900;10.774;2023-12-20T02:51:56;4.15;;;1.88;;
39502;SDS011;26970;49.900;10.774;2023-12-20T02:54:22;2.95;;;1.80;;
39502;SDS011;26970;49.900;10.774;2023-12-20T02:56:48;4.40;;;1.95;;
39502;SDS011;26970;49.900;10.774;2023-12-20T02:59:13;4.05;;;1.75;;
39502;SDS011;26970;49.900;10.774;2023-12-20T03:01:43;2.42;;;1.60;;
39502;SDS011;26970;49.900;10.774;2023-12-20T03:04:09;2.55;;;1.88;;
39502;SDS011;26970;49.900;10.774;2023-12-20T03:06:34;3.30;;;1.92;;
39502;SDS011;26970;49.900;10.774;2023-12-20T03:09:00;2.55;;;1.60;;
39502;SDS011;26970;49.900;10.774;2023-12-20T03:11:29;2.90;;;1.70;;
39502;SDS011;26970;49.900;10.774;2023-12-20T03:13:55;2.95;;;1.67;;
39502;SDS011;26970;49.900;10.774;2023-12-20T03:16:21;2.35;;;1.50;;
39502;SDS011;26970;49.900;10.774;2023-12-20T03:18:46;1.85;;;1.30;;
39502;SDS011;26970;49.900;10.774;2023-12-20T03:21:12;1.50;;;1.40;;
39502;SDS011;26970;49.900;10.774;2023-12-20T03:23:37;2.17;;;1.52;;
39502;SDS011;26970;49.900;10.774;2023-12-20T03:26:03;1.67;;;1.25;;
39502;SDS011;26970;49.900;10.774;2023-12-20T03:28:32;1.40;;;1.30;;
39502;SDS011;26970;49.900;10.774;2023-12-20T03:30:58;1.75;;;1.52;;
39502;SDS011;26970;49.900;10.774;2023-12-20T03:33:24;2.20;;;1.63;;
39502;SDS011;26970;49.900;10.774;2023-12-20T03:35:49;1.20;;;1.10;;
39502;SDS011;26970;49.900;10.774;2023-12-20T03:38:15;1.50;;;1.40;;
39502;SDS011;26970;49.900;10.774;2023-12-20T03:40:41;1.20;;;1.10;;
39502;SDS011;26970;49.900;10.774;2023-12-20T03:43:06;1.13;;;1.05;;
39502;SDS011;26970;49.900;10.774;2023-12-20T03:45:33;1.52;;;1.30;;
39502;SDS011;26970;49.900;10.774;2023-12-20T03:47:58;1.05;;;1.00;;
39502;SDS011;26970;49.900;10.774;2023-12-20T03:50:24;1.52;;;1.20;;
39502;SDS011;26970;49.900;10.774;2023-12-20T03:52:51;1.20;;;1.10;;
39502;SDS011;26970;49.900;10.774;2023-12-20T03:55:17;1.55;;;1.20;;
39502;SDS011;26970;49.900;10.774;2023-12-20T03:57:43;1.60;;;1.20;;
39502;SDS011;26970;49.900;10.774;2023-12-20T04:00:08;1.20;;;1.10;;
39502;SDS011;26970;49.900;10.774;2023-12-20T04:02:37;1.38;;;1.05;;
39502;SDS011;26970;49.900;10.774;2023-12-20T04:05:04;1.27;;;1.17;;
39502;SDS011;26970;49.900;10.774;2023-12-20T04:07:30;1.38;;;1.27;;
39502;SDS011;26970;49.900;10.774;2023-12-20T04:09:55;1.13;;;1.05;;
39502;SDS011;26970;49.900;10.774;2023-12-20T04:12:24;2.20;;;1.42;;
39502;SDS011;26970;49.900;10.774;2023-12-20T04:14:49;1.55;;;1.27;;
39502;SDS011;26970;49.900;10.774;2023-12-20T04:17:15;1.40;;;1.30;;
39502;SDS011;26970;49.900;10.774;2023-12-20T04:19:41;2.10;;;1.10;;
39502;SDS011;26970;49.900;10.774;2023-12-20T04:22:07;1.83;;;1.40;;
39502;SDS011;26970;49.900;10.774;2023-12-20T04:24:33;1.17;;;1.08;;
39502;SDS011;26970;49.900;10.774;2023-12-20T04:26:58;1.10;;;1.00;;
39502;SDS011;26970;49.900;10.774;2023-12-20T04:29:24;1.75;;;1.40;;
39502;SDS011;26970;49.900;10.774;2023-12-20T04:31:50;1.20;;;1.02;;
39502;SDS011;26970;49.900;10.774;2023-12-20T04:34:16;2.25;;;1.55;;
39502;SDS011;26970;49.900;10.774;2023-12-20T04:36:42;1.40;;;1.30;;
39502;SDS011;26970;49.900;10.774;2023-12-20T04:39:08;1.50;;;1.20;;
39502;SDS011;26970;49.900;10.774;2023-12-20T04:41:34;1.45;;;1.35;;
39502;SDS011;26970;49.900;10.774;2023-12-20T04:44:00;1.60;;;1.50;;
39502;SDS011;26970;49.900;10.774;2023-12-20T04:46:25;2.22;;;1.50;;
39502;SDS011;26970;49.900;10.774;2023-12-20T04:48:51;1.73;;;1.50;;
39502;SDS011;26970;49.900;10.774;2023-12-20T04:51:17;2.20;;;1.80;;
39502;SDS011;26970;49.900;10.774;2023-12-20T04:53:42;2.78;;;1.70;;
39502;SDS011;26970;49.900;10.774;2023-12-20T04:56:08;2.00;;;1.50;;
39502;SDS011;26970;49.900;10.774;2023-12-20T04:58:34;2.85;;;1.67;;
39502;SDS011;26970;49.900;10.774;2023-12-20T05:00:59;1.73;;;1.52;;
39502;SDS011;26970;49.900;10.774;2023-12-20T05:03:25;3.00;;;1.90;;
39502;SDS011;26970;49.900;10.774;2023-12-20T05:05:50;1.63;;;1.48;;
39502;SDS011;26970;49.900;10.774;2023-12-20T05:08:16;2.05;;;1.50;;
39502;SDS011;26970;49.900;10.774;2023-12-20T05:10:41;2.78;;;1.80;;
39502;SDS011;26970;49.900;10.774;2023-12-20T05:13:07;2.47;;;1.75;;
39502;SDS011;26970;49.900;10.774;2023-12-20T05:15:33;3.20;;;1.95;;
39502;SDS011;26970;49.900;10.774;2023-12-20T05:17:58;2.55;;;1.70;;
39502;SDS011;26970;49.900;10.774;2023-12-20T05:20:24;3.25;;;1.70;;
39502;SDS011;26970;49.900;10.774;2023-12-20T05:22:49;2.28;;;1.73;;
39502;SDS011;26970;49.900;10.774;2023-12-20T05:25:15;2.42;;;1.80;;
39502;SDS011;26970;49.900;10.774;2023-12-20T05:27:41;2.22;;;1.65;;
39502;SDS011;26970;49.900;10.774;2023-12-20T05:30:06;2.00;;;1.52;;
39502;SDS011;26970;49.900;10.774;2023-12-20T05:32:32;2.65;;;1.92;;
39502;SDS011;26970;49.900;10.774;2023-12-20T05:34:58;2.60;;;1.75;;
39502;SDS011;26970;49.900;10.774;2023-12-20T05:37:23;2.90;;;2.00;;
39502;SDS011;26970;49.900;10.774;2023-12-20T05:39:49;2.83;;;1.92;;
39502;SDS011;26970;49.900;10.774;2023-12-20T05:42:14;3.47;;;1.65;;
39502;SDS011;26970;49.900;10.774;2023-12-20T05:44:40;2.83;;;1.85;;
39502;SDS011;26970;49.900;10.774;2023-12-20T05:47:06;2.80;;;2.00;;
39502;SDS011;26970;49.900;10.774;2023-12-20T05:49:31;3.17;;;1.80;;
39502;SDS011;26970;49.900;10.774;2023-12-20T05:51:57;2.10;;;1.63;;
39502;SDS011;26970;49.900;10.774;2023-12-20T05:54:22;2.40;;;1.70;;
39502;SDS011;26970;49.900;10.774;2023-12-20T05:56:48;2.58;;;1.90;;
39502;SDS011;26970;49.900;10.774;2023-12-20T05:59:13;2.63;;;1.90;;
39502;SDS011;26970;49.900;10.774;2023-12-20T06:01:39;5.90;;;2.10;;
39502;SDS011;26970;49.900;10.774;2023-12-20T06:04:05;2.72;;;2.00;;
39502;SDS011;26970;49.900;10.774;2023-12-20T06:06:30;3.63;;;2.10;;
39502;SDS011;26970;49.900;10.774;2023-12-20T06:08:56;1.75;;;1.58;;
39502;SDS011;26970;49.900;10.774;2023-12-20T06:11:22;2.47;;;1.73;;
39502;SDS011;26970;49.900;10.774;2023-12-20T06:13:47;2.47;;;1.88;;
39502;SDS011;26970;49.900;10.774;2023-12-20T06:16:14;2.92;;;2.05;;
39502;SDS011;26970;49.900;10.774;2023-12-20T06:18:40;2.83;;;2.00;;
39502;SDS011;26970;49.900;10.774;2023-12-20T06:21:05;3.08;;;2.20;;
39502;SDS011;26970;49.900;10.774;2023-12-20T06:23:32;3.70;;;2.42;;
39502;SDS011;26970;49.900;10.774;2023-12-20T06:25:57;3.05;;;2.05;;
39502;SDS011;26970;49.900;10.774;2023-12-20T06:28:23;2.50;;;1.95;;
39502;SDS011;26970;49.900;10.774;2023-12-20T06:30:48;5.20;;;2.55;;
39502;SDS011;26970;49.900;10.774;2023-12-20T06:33:14;4.65;;;2.58;;
39502;SDS011;26970;49.900;10.774;2023-12-20T06:35:40;6.68;;;2.65;;
39502;SDS011;26970;49.900;10.774;2023-12-20T06:38:06;3.83;;;2.38;;
39502;SDS011;26970;49.900;10.774;2023-12-20T06:40:31;4.80;;;2.60;;
39502;SDS011;26970;49.900;10.774;2023-12-20T06:42:57;3.35;;;2.40;;
39502;SDS011;26970;49.900;10.774;2023-12-20T06:45:22;3.83;;;2.45;;
39502;SDS011;26970;49.900;10.774;2023-12-20T06:47:48;3.88;;;2.45;;
39502;SDS011;26970;49.900;10.774;2023-12-20T06:50:13;3.90;;;2.50;;
39502;SDS011;26970;49.900;10.774;2023-12-20T06:52:39;3.75;;;2.75;;
39502;SDS011;26970;49.900;10.774;2023-12-20T06:55:05;4.28;;;2.55;;
39502;SDS011;26970;49.900;10.774;2023-12-20T06:57:30;4.35;;;2.80;;
39502;SDS011;26970;49.900;10.774;2023-12-20T06:59:56;5.25;;;2.70;;
39502;SDS011;26970;49.900;10.774;2023-12-20T07:02:22;5.55;;;3.13;;
39502;SDS011;26970;49.900;10.774;2023-12-20T07:04:48;4.13;;;2.80;;
39502;SDS011;26970;49.900;10.774;2023-12-20T07:07:13;5.80;;;2.90;;
39502;SDS011;26970;49.900;10.774;2023-12-20T07:09:39;4.43;;;2.97;;
39502;SDS011;26970;49.900;10.774;2023-12-20T07:12:07;4.80;;;2.72;;
39502;SDS011;26970;49.900;10.774;2023-12-20T07:14:33;5.25;;;2.60;;
39502;SDS011;26970;49.900;10.774;2023-12-20T07:16:58;5.15;;;2.90;;
39502;SDS011;26970;49.900;10.774;2023-12-20T07:19:24;5.68;;;2.80;;
39502;SDS011;26970;49.900;10.774;2023-12-20T07:21:49;4.85;;;2.90;;
39502;SDS011;26970;49.900;10.774;2023-12-20T07:24:15;5.53;;;2.72;;
39502;SDS011;26970;49.900;10.774;2023-12-20T07:26:41;3.85;;;2.75;;
39502;SDS011;26970;49.900;10.774;2023-12-20T07:29:06;4.25;;;2.90;;
39502;SDS011;26970;49.900;10.774;2023-12-20T07:31:32;4.28;;;2.95;;
39502;SDS011;26970;49.900;10.774;2023-12-20T07:33:57;7.32;;;3.20;;
39502;SDS011;26970;49.900;10.774;2023-12-20T07:36:23;6.00;;;3.33;;
39502;SDS011;26970;49.900;10.774;2023-12-20T07:38:48;6.28;;;3.60;;
39502;SDS011;26970;49.900;10.774;2023-12-20T07:41:14;5.15;;;3.25;;
39502;SDS011;26970;49.900;10.774;2023-12-20T07:43:41;4.97;;;3.45;;
39502;SDS011;26970;49.900;10.774;2023-12-20T07:46:07;5.53;;;3.90;;
39502;SDS011;26970;49.900;10.774;2023-12-20T07:48:34;6.25;;;3.38;;
39502;SDS011;26970;49.900;10.774;2023-12-20T07:51:00;4.65;;;3.20;;
39502;SDS011;26970;49.900;10.774;2023-12-20T07:53:26;4.68;;;2.47;;
39502;SDS011;26970;49.900;10.774;2023-12-20T07:55:52;3.75;;;2.78;;
39502;SDS011;26970;49.900;10.774;2023-12-20T07:58:18;4.57;;;2.80;;
39502;SDS011;26970;49.900;10.774;2023-12-20T08:00:44;4.45;;;2.70;;
39502;SDS011;26970;49.900;10.774;2023-12-20T08:03:09;4.50;;;2.70;;
39502;SDS011;26970;49.900;10.774;2023-12-20T08:05:35;3.90;;;2.55;;
39502;SDS011;26970;49.900;10.774;2023-12-20T08:08:01;4.60;;;2.70;;
39502;SDS011;26970;49.900;10.774;2023-12-20T08:10:26;4.13;;;2.83;;
39502;SDS011;26970;49.900;10.774;2023-12-20T08:12:54;4.72;;;2.88;;
39502;SDS011;26970;49.900;10.774;2023-12-20T08:15:20;4.70;;;3.05;;
39502;SDS011;26970;49.900;10.774;2023-12-20T08:17:45;3.85;;;2.63;;
39502;SDS011;26970;49.900;10.774;2023-12-20T08:20:11;4.90;;;2.75;;
39502;SDS011;26970;49.900;10.774;2023-12-20T08:22:36;6.60;;;3.10;;
39502;SDS011;26970;49.900;10.774;2023-12-20T08:25:02;4.35;;;2.88;;
39502;SDS011;26970;49.900;10.774;2023-12-20T08:27:28;4.65;;;3.35;;
39502;SDS011;26970;49.900;10.774;2023-12-20T08:29:53;6.60;;;3.40;;
39502;SDS011;26970;49.900;10.774;2023-12-20T08:32:19;4.55;;;3.15;;
39502;SDS011;26970;49.900;10.774;2023-12-20T08:34:45;4.93;;;3.17;;
39502;SDS011;26970;49.900;10.774;2023-12-20T08:37:10;7.82;;;3.50;;
39502;SDS011;26970;49.900;10.774;2023-12-20T08:39:36;4.93;;;3.35;;
39502;SDS011;26970;49.900;10.774;2023-12-20T08:42:01;7.45;;;3.22;;
39502;SDS011;26970;49.900;10.774;2023-12-20T08:44:27;6.68;;;3.60;;
39502;SDS011;26970;49.900;10.774;2023-12-20T08:46:52;7.35;;;2.95;;
39502;SDS011;26970;49.900;10.774;2023-12-20T08:49:18;4.45;;;3.05;;
39502;SDS011;26970;49.900;10.774;2023-12-20T08:51:43;5.90;;;3.08;;
39502;SDS011;26970;49.900;10.774;2023-12-20T08:54:09;4.15;;;2.72;;
39502;SDS011;26970;49.900;10.774;2023-12-20T08:56:35;9.00;;;3.13;;
39502;SDS011;26970;49.900;10.774;2023-12-20T08:59:00;5.47;;;2.85;;
39502;SDS011;26970;49.900;10.774;2023-12-20T09:01:26;5.05;;;2.92;;
39502;SDS011;26970;49.900;10.774;2023-12-20T09:03:51;5.60;;;2.70;;
39502;SDS011;26970;49.900;10.774;2023-12-20T09:06:17;3.40;;;2.35;;
39502;SDS011;26970;49.900;10.774;2023-12-20T09:08:42;3.60;;;2.38;;
39502;SDS011;26970;49.900;10.774;2023-12-20T09:11:08;5.35;;;3.08;;
39502;SDS011;26970;49.900;10.774;2023-12-20T09:13:33;3.97;;;2.47;;
39502;SDS011;26970;49.900;10.774;2023-12-20T09:15:59;4.93;;;2.38;;
39502;SDS011;26970;49.900;10.774;2023-12-20T09:18:25;6.25;;;2.60;;
39502;SDS011;26970;49.900;10.774;2023-12-20T09:20:50;3.58;;;2.45;;
39502;SDS011;26970;49.900;10.774;2023-12-20T09:23:16;3.63;;;2.45;;
39502;SDS011;26970;49.900;10.774;2023-12-20T09:25:43;7.68;;;2.53;;
39502;SDS011;26970;49.900;10.774;2023-12-20T09:28:09;3.72;;;2.35;;
39502;SDS011;26970;49.900;10.774;2023-12-20T09:30:34;4.32;;;2.10;;
39502;SDS011;26970;49.900;10.774;2023-12-20T09:33:02;5.65;;;2.42;;
39502;SDS011;26970;49.900;10.774;2023-12-20T09:35:29;5.25;;;2.20;;
39502;SDS011;26970;49.900;10.774;2023-12-20T09:37:55;5.45;;;2.83;;
39502;SDS011;26970;49.900;10.774;2023-12-20T09:40:20;5.43;;;2.13;;
39502;SDS011;26970;49.900;10.774;2023-12-20T09:42:48;5.25;;;2.10;;
39502;SDS011;26970;49.900;10.774;2023-12-20T09:45:20;4.35;;;2.45;;
39502;SDS011;26970;49.900;10.774;2023-12-20T09:47:47;3.92;;;2.13;;
39502;SDS011;26970;49.900;10.774;2023-12-20T09:50:14;7.72;;;2.33;;
39502;SDS011;26970;49.900;10.774;2023-12-20T09:52:39;8.48;;;2.58;;
39502;SDS011;26970;49.900;10.774;2023-12-20T09:55:07;8.93;;;3.25;;
39502;SDS011;26970;49.900;10.774;2023-12-20T09:57:33;5.32;;;1.98;;
39502;SDS011;26970;49.900;10.774;2023-12-20T09:59:59;4.35;;;2.15;;
39502;SDS011;26970;49.900;10.774;2023-12-20T10:02:25;5.72;;;2.30;;
39502;SDS011;26970;49.900;10.774;2023-12-20T10:04:54;4.82;;;2.90;;
39502;SDS011;26970;49.900;10.774;2023-12-20T10:07:20;4.28;;;2.55;;
39502;SDS011;26970;49.900;10.774;2023-12-20T10:09:47;8.45;;;2.38;;
39502;SDS011;26970;49.900;10.774;2023-12-20T10:12:13;8.98;;;3.13;;
39502;SDS011;26970;49.900;10.774;2023-12-20T10:14:39;5.50;;;3.58;;
39502;SDS011;26970;49.900;10.774;2023-12-20T10:17:05;8.05;;;2.35;;
39502;SDS011;26970;49.900;10.774;2023-12-20T10:19:34;6.57;;;2.45;;
39502;SDS011;26970;49.900;10.774;2023-12-20T10:22:00;5.72;;;2.67;;
39502;SDS011;26970;49.900;10.774;2023-12-20T10:24:25;4.78;;;2.30;;
39502;SDS011;26970;49.900;10.774;2023-12-20T10:27:01;7.10;;;2.50;;
39502;SDS011;26970;49.900;10.774;2023-12-20T10:29:36;3.92;;;2.33;;
39502;SDS011;26970;49.900;10.774;2023-12-20T10:32:22;5.80;;;2.60;;
39502;SDS011;26970;49.900;10.774;2023-12-20T10:34:50;4.93;;;3.00;;
39502;SDS011;26970;49.900;10.774;2023-12-20T10:37:16;8.82;;;3.47;;
39502;SDS011;26970;49.900;10.774;2023-12-20T10:39:49;4.28;;;2.20;;
39502;SDS011;26970;49.900;10.774;2023-12-20T10:42:17;7.45;;;2.80;;
39502;SDS011;26970;49.900;10.774;2023-12-20T10:44:46;11.32;;;4.95;;
39502;SDS011;26970;49.900;10.774;2023-12-20T10:47:13;9.52;;;3.78;;
39502;SDS011;26970;49.900;10.774;2023-12-20T10:49:38;5.20;;;2.60;;
39502;SDS011;26970;49.900;10.774;2023-12-20T10:52:05;5.97;;;2.30;;
39502;SDS011;26970;49.900;10.774;2023-12-20T10:54:31;6.75;;;2.30;;
39502;SDS011;26970;49.900;10.774;2023-12-20T10:56:58;8.65;;;3.63;;
39502;SDS011;26970;49.900;10.774;2023-12-20T10:59:24;5.20;;;2.30;;
39502;SDS011;26970;49.900;10.774;2023-12-20T11:01:52;9.45;;;2.97;;
39502;SDS011;26970;49.900;10.774;2023-12-20T11:04:28;15.63;;;6.45;;
39502;SDS011;26970;49.900;10.774;2023-12-20T11:07:23;18.48;;;5.68;;
39502;SDS011;26970;49.900;10.774;2023-12-20T11:10:09;9.68;;;3.92;;
39502;SDS011;26970;49.900;10.774;2023-12-20T11:12:44;12.50;;;4.93;;
39502;SDS011;26970;49.900;10.774;2023-12-20T11:15:19;8.35;;;3.88;;
39502;SDS011;26970;49.900;10.774;2023-12-20T11:17:46;6.55;;;3.20;;
39502;SDS011;26970;49.900;10.774;2023-12-20T11:20:19;13.35;;;3.35;;
39502;SDS011;26970;49.900;10.774;2023-12-20T11:22:54;8.80;;;4.03;;
39502;SDS011;26970;49.900;10.774;2023-12-20T11:25:21;10.68;;;3.50;;
39502;SDS011;26970;49.900;10.774;2023-12-20T11:28:06;5.05;;;3.58;;
39502;SDS011;26970;49.900;10.774;2023-12-20T11:33:15;3.72;;;1.45;;
39502;SDS011;26970;49.900;10.774;2023-12-20T11:35:41;5.82;;;2.00;;
39502;SDS011;26970;49.900;10.774;2023-12-20T11:38:08;2.88;;;1.90;;
39502;SDS011;26970;49.900;10.774;2023-12-20T11:40:35;7.90;;;2.30;;
39502;SDS011;26970;49.900;10.774;2023-12-20T11:43:02;6.75;;;2.10;;
39502;SDS011;26970;49.900;10.774;2023-12-20T11:45:28;2.70;;;1.67;;
39502;SDS011;26970;49.900;10.774;2023-12-20T11:47:54;6.05;;;1.90;;
39502;SDS011;26970;49.900;10.774;2023-12-20T11:50:22;4.50;;;1.60;;
39502;SDS011;26970;49.900;10.774;2023-12-20T11:52:49;5.38;;;2.25;;
39502;SDS011;26970;49.900;10.774;2023-12-20T11:55:16;7.10;;;1.80;;
39502;SDS011;26970;49.900;10.774;2023-12-20T11:57:42;4.13;;;1.80;;
39502;SDS011;26970;49.900;10.774;2023-12-20T12:00:09;8.05;;;2.10;;
39502;SDS011;26970;49.900;10.774;2023-12-20T12:02:35;8.68;;;2.63;;
39502;SDS011;26970;49.900;10.774;2023-12-20T12:05:00;4.93;;;1.77;;
39502;SDS011;26970;49.900;10.774;2023-12-20T12:07:27;7.50;;;2.72;;
39502;SDS011;26970;49.900;10.774;2023-12-20T12:09:52;9.98;;;4.13;;
39502;SDS011;26970;49.900;10.774;2023-12-20T12:12:18;7.63;;;3.45;;
39502;SDS011;26970;49.900;10.774;2023-12-20T12:14:45;9.93;;;3.55;;
39502;SDS011;26970;49.900;10.774;2023-12-20T12:17:11;8.48;;;2.63;;
39502;SDS011;26970;49.900;10.774;2023-12-20T12:19:37;6.38;;;2.25;;
39502;SDS011;26970;49.900;10.774;2023-12-20T12:22:10;12.00;;;5.00;;
39502;SDS011;26970;49.900;10.774;2023-12-20T12:24:45;5.78;;;2.65;;
39502;SDS011;26970;49.900;10.774;2023-12-20T12:27:11;5.25;;;2.78;;
39502;SDS011;26970;49.900;10.774;2023-12-20T12:29:41;7.22;;;3.17;;
39502;SDS011;26970;49.900;10.774;2023-12-20T12:32:24;7.65;;;3.75;;
39502;SDS011;26970;49.900;10.774;2023-12-20T12:34:50;11.68;;;4.22;;
39502;SDS011;26970;49.900;10.774;2023-12-20T12:37:16;4.70;;;2.47;;
39502;SDS011;26970;49.900;10.774;2023-12-20T12:39:42;4.20;;;2.45;;
39502;SDS011;26970;49.900;10.774;2023-12-20T12:42:07;5.60;;;2.58;;
39502;SDS011;26970;49.900;10.774;2023-12-20T12:44:33;7.93;;;2.53;;
39502;SDS011;26970;49.900;10.774;2023-12-20T12:46:58;6.43;;;1.88;;
39502;SDS011;26970;49.900;10.774;2023-12-20T12:49:24;4.18;;;2.05;;
39502;SDS011;26970;49.900;10.774;2023-12-20T12:51:51;7.28;;;2.05;;
39502;SDS011;26970;49.900;10.774;2023-12-20T12:54:16;3.90;;;1.85;;
39502;SDS011;26970;49.900;10.774;2023-12-20T12:56:43;7.15;;;2.95;;
39502;SDS011;26970;49.900;10.774;2023-12-20T12:59:09;7.50;;;2.50;;
39502;SDS011;26970;49.900;10.774;2023-12-20T13:01:34;8.90;;;3.33;;
39502;SDS011;26970;49.900;10.774;2023-12-20T13:04:00;9.35;;;4.20;;
39502;SDS011;26970;49.900;10.774;2023-12-20T13:06:28;7.13;;;2.80;;
39502;SDS011;26970;49.900;10.774;2023-12-20T13:08:54;16.45;;;5.85;;
39502;SDS011;26970;49.900;10.774;2023-12-20T13:11:20;10.38;;;3.58;;
39502;SDS011;26970;49.900;10.774;2023-12-20T13:13:46;9.65;;;3.53;;
39502;SDS011;26970;49.900;10.774;2023-12-20T13:16:12;10.10;;;3.80;;
39502;SDS011;26970;49.900;10.774;2023-12-20T13:18:38;5.13;;;2.30;;
39502;SDS011;26970;49.900;10.774;2023-12-20T13:21:07;8.93;;;2.63;;
39502;SDS011;26970;49.900;10.774;2023-12-20T13:23:32;9.35;;;2.72;;
39502;SDS011;26970;49.900;10.774;2023-12-20T13:25:58;8.98;;;3.38;;
39502;SDS011;26970;49.900;10.774;2023-12-20T13:28:24;7.55;;;2.10;;
39502;SDS011;26970;49.900;10.774;2023-12-20T13:30:49;8.15;;;2.20;;
39502;SDS011;26970;49.900;10.774;2023-12-20T13:33:15;7.07;;;1.98;;
39502;SDS011;26970;49.900;10.774;2023-12-20T13:35:41;5.10;;;1.65;;
39502;SDS011;26970;49.900;10.774;2023-12-20T13:38:06;5.00;;;2.53;;
39502;SDS011;26970;49.900;10.774;2023-12-20T13:40:32;8.55;;;2.25;;
39502;SDS011;26970;49.900;10.774;2023-12-20T13:42:58;5.72;;;2.05;;
39502;SDS011;26970;49.900;10.774;2023-12-20T13:45:24;5.70;;;1.83;;
39502;SDS011;26970;49.900;10.774;2023-12-20T13:47:50;6.70;;;1.67;;
39502;SDS011;26970;49.900;10.774;2023-12-20T13:50:16;4.28;;;2.03;;
39502;SDS011;26970;49.900;10.774;2023-12-20T13:52:41;3.58;;;1.75;;
39502;SDS011;26970;49.900;10.774;2023-12-20T13:55:07;6.70;;;1.90;;
39502;SDS011;26970;49.900;10.774;2023-12-20T13:57:34;8.65;;;1.95;;
39502;SDS011;26970;49.900;10.774;2023-12-20T14:00:02;3.85;;;1.90;;
39502;SDS011;26970;49.900;10.774;2023-12-20T14:02:29;5.63;;;1.90;;
39502;SDS011;26970;49.900;10.774;2023-12-20T14:04:55;3.53;;;1.80;;
39502;SDS011;26970;49.900;10.774;2023-12-20T14:07:21;6.53;;;1.70;;
39502;SDS011;26970;49.900;10.774;2023-12-20T14:09:46;4.25;;;1.60;;
39502;SDS011;26970;49.900;10.774;2023-12-20T14:12:12;4.63;;;1.70;;
39502;SDS011;26970;49.900;10.774;2023-12-20T14:14:38;5.13;;;1.75;;
39502;SDS011;26970;49.900;10.774;2023-12-20T14:17:04;4.45;;;1.80;;
39502;SDS011;26970;49.900;10.774;2023-12-20T14:19:31;6.15;;;1.65;;
39502;SDS011;26970;49.900;10.774;2023-12-20T14:21:57;7.68;;;1.70;;
39502;SDS011;26970;49.900;10.774;2023-12-20T14:24:26;6.40;;;1.92;;
39502;SDS011;26970;49.900;10.774;2023-12-20T14:26:52;20.27;;;8.60;;
39502;SDS011;26970;49.900;10.774;2023-12-20T14:29:18;43.95;;;15.43;;
39502;SDS011;26970;49.900;10.774;2023-12-20T14:31:43;49.92;;;16.95;;